Aeroporto :
LOGIN :

Iscrizione | Disclaimer

   EN    FR    IT 

 










Sommario :    VFR   VFR Marginale   IFR   IFR Intensivo   IFR Molto Intensivo
Visibilità : 
Base nubi : 
>= 8 km
>= 3000ft
5 / 8 km
1000 / 3000 ft
1500m / 5 km
500 / 1000 ft
800 / 1500m
200 / 500 ft
< 800m
< 200 ft
Simboli :   Temporali  Nebbia  Neve Forte  Precipitazioni Forti  Vento > 20 kt
SIGMETs :   Varie  Temporali  Ghiacco  Turbolenza  Onda orograficha  Ceneri Vulcaniche






- Altitudine del aeroporto : 1367 ft
- Codice IATA : FDH


EDNY - Friedrichshafen

ULTIMO METAR :
  • 231820Z 28003KT 240V310 9999 FEW026 13/10 Q1018

METARs OBSOLETI :
  • 231750Z 25005KT 210V280 9999 BKN024 OVC056 13/10 Q1018
  • 231720Z 25007KT 9999 FEW018 BKN024 OVC052 13/10 Q1018
  • 231650Z 25006KT 220V280 9999 FEW018 BKN024 OVC050 12/10 Q1018
  • 231620Z 25006KT 220V300 9999 FEW017 BKN024 OVC048 13/10 Q1018
  • 231550Z 25007KT 220V300 9999 FEW018 BKN024 OVC054 13/11 Q1018
  • 231520Z 25008KT 9999 SCT012 BKN023 OVC054 12/12 Q1017
  • 231450Z 24010KT 9999 FEW010 OVC011 12/11 Q1017
  • 231420Z 23010KT 9999 -RA FEW007 BKN012 11/11 Q1017 RERA
  • 231350Z 26006KT 230V310 7000 RA FEW008 OVC061 11/11 Q1017

TAF TAF EDNY
Valido dal 23 a 18 ore il 24 a 03 ore UTC


231700Z 2318/2403 24005KT 9999 SCT020 BKN045
BECMG 2319/2321 VRB02KT



MetMap, La meteo Aeronautica in un colpo d'occhio ! - Copyright ORBIFLY Dicembre 2007 - Disclaimer

ORBIFLY MET'MAP TEAM :

Programmazione e sviluppo : Alexandra Zaïnal
Concezione : Baudouin d'Aumeries
Supporto tecnico e logistico : Manuel Goepfert
Aiuto : Marc-Olivier Méhu
Aiuto per la traduzione : Arnaldo La Scala




FONTI E CREDITI :

   NOAA